Brest, Belarus
Current Conditions -  °F | °C
As of 3:30 PM on Saturday 20 Dec 2014 (Local Time) from UMBB Reporting Station
Overcast Overcast  
Wind Chill: 34°   Ceiling: 3300
Heat Index: 41°   Visibility: 6mi
Dew Point: 30°   Wind: 13mph
Humidity: 65%   Direction: 240°WSW
Pressure: 29.77"   Gusts: 20mph
Location:  52.12°N, 23.68°E
Report Text: UMBB 201330Z 24006G09MPS 9999 OVC033CB 05/M01 Q1008 R29/290050NOSIG
Loading
Personal Weather Stations






























Interactive Weather Map New forecast layout! Learn more

10-Day Weather Forecast

Advertisements
Track Severe Weather on mobile